createdAt,value
2023-03-10T00:01:10.751Z,4.38
2023-03-10T00:03:16.573Z,4.60
2023-03-10T00:05:22.181Z,5.22
2023-03-10T00:07:26.358Z,3.15
2023-03-10T00:09:30.080Z,3.10
2023-03-10T00:11:33.982Z,5.70
2023-03-10T00:13:39.440Z,6.72
2023-03-10T00:15:43.242Z,5.63
2023-03-10T00:17:50.188Z,4.20
2023-03-10T00:19:55.642Z,12.45
2023-03-10T00:21:59.188Z,8.95
2023-03-10T00:24:02.760Z,3.75
2023-03-10T00:26:06.834Z,11.60
2023-03-10T00:28:16.392Z,7.88
2023-03-10T00:30:20.574Z,5.55
2023-03-10T00:32:24.327Z,6.43
2023-03-10T00:34:29.325Z,6.38
2023-03-10T00:36:35.851Z,8.52
2023-03-10T00:38:41.300Z,7.57
2023-03-10T00:40:45.086Z,4.35
2023-03-10T00:42:48.795Z,6.55
2023-03-10T00:44:52.459Z,7.72
2023-03-10T00:46:56.099Z,8.10
2023-03-10T00:48:59.683Z,12.90
2023-03-10T00:51:03.854Z,3.80
2023-03-10T00:53:08.952Z,8.85
2023-03-10T00:55:14.150Z,5.43
2023-03-10T00:59:21.183Z,4.55
2023-03-10T01:01:26.859Z,4.72
2023-03-10T01:03:30.868Z,3.35
2023-03-10T01:05:34.739Z,9.40
2023-03-10T01:07:38.229Z,8.45
2023-03-10T01:09:43.324Z,3.05
2023-03-10T01:11:46.951Z,6.95
2023-03-10T01:13:51.134Z,3.47
2023-03-10T01:15:54.785Z,6.53
2023-03-10T01:17:58.284Z,5.03
2023-03-10T01:20:01.985Z,2.55
2023-03-10T01:22:05.880Z,3.75
2023-03-10T01:24:09.988Z,2.97
2023-03-10T01:26:16.603Z,5.15
2023-03-10T01:28:23.538Z,4.43
2023-03-10T01:30:27.063Z,4.25
2023-03-10T01:32:30.766Z,3.33
2023-03-10T01:34:34.637Z,9.25
2023-03-10T01:36:38.316Z,4.55
2023-03-10T01:38:44.072Z,1.42
2023-03-10T01:40:50.785Z,1.73
2023-03-10T01:43:27.096Z,3.08
2023-03-10T01:47:53.199Z,2.65
2023-03-10T01:49:57.205Z,3.30
2023-03-10T01:52:05.153Z,3.67
2023-03-10T01:54:13.062Z,4.18
2023-03-10T01:56:16.912Z,2.75
2023-03-10T01:58:26.368Z,2.80
2023-03-10T02:00:31.498Z,2.45
2023-03-10T02:02:39.001Z,3.08
2023-03-10T02:04:45.654Z,3.75
2023-03-10T02:06:49.956Z,1.50
2023-03-10T02:08:57.905Z,2.15
2023-03-10T02:11:02.816Z,1.80
2023-03-10T02:13:06.711Z,2.67
2023-03-10T02:15:12.914Z,1.45
2023-03-10T02:17:19.642Z,1.65
2023-03-10T02:19:37.201Z,1.15
2023-03-10T02:21:51.008Z,1.50
2023-03-10T02:24:04.809Z,1.30
2023-03-10T02:26:17.485Z,1.55
2023-03-10T02:28:22.376Z,3.63
2023-03-10T02:30:28.668Z,2.90
2023-03-10T02:32:34.993Z,0.80
2023-03-10T02:34:38.373Z,1.27
2023-03-10T02:36:41.646Z,0.52
2023-03-10T02:38:47.126Z,1.67
2023-03-10T02:40:52.154Z,1.05
2023-03-10T02:43:01.304Z,2.58
2023-03-10T02:45:08.198Z,1.67
2023-03-10T02:47:12.433Z,1.45
2023-03-10T02:49:15.867Z,1.73
2023-03-10T02:51:24.523Z,2.22
2023-03-10T02:53:31.096Z,1.85
2023-03-10T02:57:37.402Z,3.25
2023-03-10T02:59:40.947Z,2.30
2023-03-10T03:01:46.885Z,2.92
2023-03-10T03:03:50.798Z,6.10
2023-03-10T03:05:54.275Z,4.97
2023-03-10T03:07:57.930Z,2.95
2023-03-10T03:10:01.310Z,4.05
2023-03-10T03:12:04.843Z,4.30
2023-03-10T03:14:08.271Z,4.00
2023-03-10T03:16:13.722Z,5.32
2023-03-10T03:18:20.169Z,6.25
2023-03-10T03:20:23.509Z,3.95
2023-03-10T03:22:27.715Z,4.88
2023-03-10T03:24:32.191Z,5.60
2023-03-10T03:26:35.424Z,4.00
2023-03-10T03:28:46.702Z,4.70
2023-03-10T03:30:52.360Z,4.57
2023-03-10T03:32:57.347Z,5.38
2023-03-10T03:35:02.698Z,5.18
2023-03-10T03:37:06.818Z,4.88
2023-03-10T03:39:17.439Z,7.53
2023-03-10T03:41:24.200Z,7.45
2023-03-10T03:43:29.699Z,6.78
2023-03-10T03:45:35.346Z,5.22
2023-03-10T03:47:39.102Z,7.90
2023-03-10T03:49:42.438Z,6.63
2023-03-10T03:51:48.863Z,9.38
2023-03-10T03:53:52.530Z,4.80
2023-03-10T03:55:55.854Z,7.28
2023-03-10T03:58:01.759Z,7.75
2023-03-10T04:00:08.750Z,4.55
2023-03-10T04:02:15.825Z,6.68
2023-03-10T04:04:19.295Z,4.03
2023-03-10T04:06:22.651Z,5.13
2023-03-10T04:08:27.310Z,4.10
2023-03-10T04:10:30.720Z,4.45
2023-03-10T04:12:34.428Z,4.72
2023-03-10T04:14:38.537Z,5.93
2023-03-10T04:16:41.896Z,4.35
2023-03-10T04:18:45.932Z,6.85
2023-03-10T04:20:51.652Z,4.85
2023-03-10T04:22:56.831Z,4.53
2023-03-10T04:26:10.792Z,5.40
2023-03-10T04:28:22.167Z,5.32
2023-03-10T04:30:29.969Z,4.43
2023-03-10T04:32:36.661Z,4.00
2023-03-10T04:34:41.027Z,4.72
2023-03-10T04:36:44.550Z,5.07
2023-03-10T04:38:48.376Z,3.17
2023-03-10T04:40:55.641Z,4.97
2023-03-10T04:43:01.538Z,4.15
2023-03-10T04:45:08.924Z,5.30
2023-03-10T04:47:12.354Z,4.13
2023-03-10T04:49:16.474Z,4.72
2023-03-10T04:51:22.116Z,3.78
2023-03-10T04:53:27.786Z,5.00
2023-03-10T04:55:31.715Z,7.38
2023-03-10T04:57:35.629Z,5.55
2023-03-10T04:59:39.767Z,5.68
2023-03-10T05:01:44.885Z,5.85
2023-03-10T05:03:48.169Z,5.50
2023-03-10T05:05:52.006Z,4.85
2023-03-10T05:07:55.390Z,4.68
2023-03-10T05:09:59.690Z,5.10
2023-03-10T05:12:05.420Z,3.60
2023-03-10T05:14:12.397Z,3.10
2023-03-10T05:16:16.810Z,3.60
2023-03-10T05:18:23.351Z,3.83
2023-03-10T05:20:28.155Z,3.97
2023-03-10T05:22:31.520Z,2.72
2023-03-10T05:24:35.416Z,2.97
2023-03-10T05:26:38.652Z,2.88
2023-03-10T05:28:42.141Z,3.72
2023-03-10T05:30:46.614Z,2.65
2023-03-10T05:32:50.055Z,2.22
2023-03-10T05:34:54.760Z,3.67
2023-03-10T05:36:58.203Z,8.50
2023-03-10T05:39:02.414Z,2.72
2023-03-10T05:41:09.316Z,4.90
2023-03-10T05:43:13.160Z,3.85
2023-03-10T05:45:17.412Z,2.85
2023-03-10T05:47:20.753Z,2.97
2023-03-10T05:49:24.634Z,5.50
2023-03-10T05:51:30.160Z,4.30
2023-03-10T05:53:37.340Z,6.07
2023-03-10T05:55:43.074Z,5.35
2023-03-10T05:57:46.595Z,7.35
2023-03-10T05:59:49.869Z,4.60
2023-03-10T06:01:53.429Z,3.67
2023-03-10T06:03:56.805Z,5.93
2023-03-10T06:06:01.055Z,5.07
2023-03-10T06:08:06.544Z,3.67
2023-03-10T06:10:11.764Z,4.28
2023-03-10T06:12:15.045Z,4.18
2023-03-10T06:14:18.299Z,2.05
2023-03-10T06:16:21.557Z,5.30
2023-03-10T06:18:25.119Z,3.05
2023-03-10T06:20:28.811Z,4.32
2023-03-10T06:22:32.065Z,5.45
2023-03-10T06:24:36.826Z,3.78
2023-03-10T06:26:41.356Z,2.75
2023-03-10T06:28:46.907Z,3.78
2023-03-10T06:30:55.719Z,4.40
2023-03-10T06:33:00.803Z,3.50
2023-03-10T06:35:04.103Z,1.35
2023-03-10T06:37:07.439Z,2.50
2023-03-10T06:39:10.843Z,6.53
2023-03-10T06:41:16.606Z,2.22
2023-03-10T06:43:21.107Z,3.47
2023-03-10T06:45:24.877Z,4.00
2023-03-10T06:47:28.611Z,3.83
2023-03-10T06:49:32.579Z,5.53
2023-03-10T06:51:36.183Z,5.85
2023-03-10T06:53:39.878Z,7.22
2023-03-10T06:55:43.412Z,4.32
2023-03-10T06:57:48.482Z,3.83
2023-03-10T06:59:52.054Z,1.42
2023-03-10T07:01:55.866Z,6.05
2023-03-10T07:04:01.044Z,3.95
2023-03-10T07:06:05.903Z,8.55
2023-03-10T07:08:09.613Z,3.22
2023-03-10T07:10:13.829Z,3.03
2023-03-10T07:12:17.316Z,2.55
2023-03-10T07:14:22.609Z,4.68
2023-03-10T07:18:30.573Z,2.45
2023-03-10T07:20:34.457Z,4.03
2023-03-10T07:22:38.110Z,7.25
2023-03-10T07:24:41.765Z,4.30
2023-03-10T07:26:45.942Z,2.25
2023-03-10T07:28:49.605Z,3.88
2023-03-10T07:30:55.120Z,3.35
2023-03-10T07:32:58.672Z,3.28
2023-03-10T07:35:02.298Z,6.90
2023-03-10T07:37:05.786Z,8.95
2023-03-10T07:39:09.391Z,2.13
2023-03-10T07:41:15.932Z,5.50
2023-03-10T07:43:19.566Z,4.40
2023-03-10T07:45:23.267Z,6.35
2023-03-10T07:47:28.388Z,6.85
2023-03-10T07:49:32.130Z,9.25
2023-03-10T07:51:36.096Z,9.68
2023-03-10T07:53:39.723Z,9.82
2023-03-10T07:55:47.516Z,6.15
2023-03-10T07:57:51.847Z,13.02
2023-03-10T07:59:55.509Z,5.80
2023-03-10T08:01:59.325Z,8.30
2023-03-10T08:04:04.647Z,10.10
2023-03-10T08:06:09.006Z,8.50
2023-03-10T08:08:12.595Z,6.90
2023-03-10T08:10:16.275Z,4.38
2023-03-10T08:12:21.072Z,10.30
2023-03-10T08:14:25.176Z,12.13
2023-03-10T08:16:29.023Z,4.80
2023-03-10T08:18:33.188Z,4.65
2023-03-10T08:20:38.218Z,5.43
2023-03-10T08:22:41.999Z,4.35
2023-03-10T08:24:45.505Z,6.15
2023-03-10T08:26:49.636Z,6.53
2023-03-10T08:28:53.301Z,6.93
2023-03-10T08:31:04.230Z,9.98
2023-03-10T08:33:08.881Z,6.72
2023-03-10T08:35:13.432Z,20.33
2023-03-10T08:37:19.046Z,8.02
2023-03-10T08:39:22.517Z,8.38
2023-03-10T08:41:28.126Z,6.38
2023-03-10T08:43:31.815Z,8.07
2023-03-10T08:45:35.947Z,6.65
2023-03-10T08:47:40.186Z,9.30
2023-03-10T08:49:46.911Z,4.80
2023-03-10T08:51:53.544Z,3.70
2023-03-10T08:53:59.109Z,8.80
2023-03-10T08:56:03.394Z,4.57
2023-03-10T08:58:07.383Z,4.18
2023-03-10T09:00:36.354Z,8.55
2023-03-10T09:02:40.788Z,4.97
2023-03-10T09:04:45.128Z,4.28
2023-03-10T09:06:48.676Z,6.28
2023-03-10T09:08:54.812Z,3.10
2023-03-10T09:10:59.974Z,8.60
2023-03-10T09:15:17.554Z,4.13
2023-03-10T09:17:21.604Z,6.07
2023-03-10T09:19:25.487Z,6.85
2023-03-10T09:21:33.634Z,8.23
2023-03-10T09:23:37.894Z,9.30
2023-03-10T09:25:41.805Z,5.43
2023-03-10T09:27:47.144Z,8.70
2023-03-10T09:29:50.798Z,7.95
2023-03-10T09:31:54.444Z,5.05
2023-03-10T09:33:58.229Z,5.13
2023-03-10T09:36:07.651Z,6.10
2023-03-10T09:38:13.120Z,4.05
2023-03-10T09:40:19.283Z,6.32
2023-03-10T09:42:40.965Z,3.25
2023-03-10T09:44:57.315Z,7.93
2023-03-10T09:47:46.401Z,9.57
2023-03-10T09:50:15.310Z,9.95
2023-03-10T09:52:31.148Z,3.45
2023-03-10T09:54:46.700Z,10.80
2023-03-10T09:56:50.287Z,7.93
2023-03-10T09:58:57.979Z,9.57
2023-03-10T10:01:04.932Z,5.50
2023-03-10T10:03:20.010Z,5.07
2023-03-10T10:05:27.572Z,5.97
2023-03-10T10:07:44.366Z,4.65
2023-03-10T10:09:53.461Z,4.25
2023-03-10T10:11:57.768Z,6.25
2023-03-10T10:14:26.236Z,6.05
2023-03-10T10:16:40.637Z,4.72
2023-03-10T10:18:48.475Z,6.88
2023-03-10T10:20:59.293Z,4.60
2023-03-10T10:23:03.019Z,7.75
2023-03-10T10:25:18.758Z,7.47
2023-03-10T10:27:25.096Z,5.07
2023-03-10T10:29:34.874Z,5.55
2023-03-10T10:31:39.913Z,5.18
2023-03-10T10:33:59.084Z,6.07
2023-03-10T10:36:05.712Z,3.35
2023-03-10T10:38:24.896Z,4.97
2023-03-10T10:40:33.536Z,5.65
2023-03-10T10:42:37.196Z,5.97
2023-03-10T10:44:43.284Z,4.45
2023-03-10T10:46:54.687Z,11.00
2023-03-10T10:51:24.670Z,7.00
2023-03-10T10:53:34.395Z,7.00
2023-03-10T10:55:38.730Z,5.80
2023-03-10T10:57:46.623Z,4.78
2023-03-10T10:59:50.571Z,5.40
2023-03-10T11:01:57.976Z,3.33
2023-03-10T11:04:07.506Z,7.97
2023-03-10T11:06:27.330Z,17.48
2023-03-10T11:08:40.867Z,4.07
2023-03-10T11:10:45.793Z,10.70
2023-03-10T11:13:01.110Z,13.40
2023-03-10T11:15:21.322Z,7.25
2023-03-10T11:17:31.169Z,7.13
2023-03-10T11:19:40.788Z,5.25
2023-03-10T11:21:49.956Z,7.18
2023-03-10T11:24:01.796Z,8.27
2023-03-10T11:26:10.109Z,7.68
2023-03-10T11:28:29.990Z,5.07
2023-03-10T11:30:35.700Z,7.70
2023-03-10T11:32:54.455Z,6.07
2023-03-10T11:34:58.642Z,5.53
2023-03-10T11:37:15.353Z,5.57
2023-03-10T11:39:26.960Z,4.82
2023-03-10T11:41:34.605Z,9.93
2023-03-10T11:43:51.768Z,7.65
2023-03-10T11:45:56.253Z,8.68
2023-03-10T11:48:16.428Z,5.82
2023-03-10T11:50:33.794Z,4.93
2023-03-10T11:52:39.174Z,4.72
2023-03-10T11:54:46.726Z,7.82
2023-03-10T11:56:52.354Z,5.75
2023-03-10T11:58:59.515Z,8.60
2023-03-10T12:01:04.221Z,6.75
2023-03-10T12:03:21.703Z,5.82
2023-03-10T12:05:27.298Z,7.63
2023-03-10T12:07:35.205Z,4.82
2023-03-10T12:09:42.546Z,7.65
2023-03-10T12:11:47.474Z,5.97
2023-03-10T12:13:54.400Z,7.95
2023-03-10T12:16:00.976Z,6.05
2023-03-10T12:18:06.923Z,4.60
2023-03-10T12:20:26.526Z,6.60
2023-03-10T12:22:39.455Z,7.72
2023-03-10T12:24:45.927Z,13.57
2023-03-10T12:27:07.084Z,13.13
2023-03-10T12:29:39.297Z,15.77
2023-03-10T12:31:48.922Z,11.82
2023-03-10T12:33:55.032Z,11.48
2023-03-10T12:36:06.228Z,9.07
2023-03-10T12:38:32.588Z,6.40
2023-03-10T12:40:53.451Z,6.93
2023-03-10T12:42:57.182Z,6.72
2023-03-10T12:45:18.602Z,8.00
2023-03-10T12:47:32.601Z,6.07
2023-03-10T12:49:40.208Z,8.68
2023-03-10T12:51:51.317Z,8.38
2023-03-10T12:54:02.136Z,6.05
2023-03-10T12:56:24.281Z,7.28
2023-03-10T12:58:29.184Z,6.00
2023-03-10T13:00:42.515Z,8.60
2023-03-10T13:02:52.149Z,5.20
2023-03-10T13:05:04.858Z,11.02
2023-03-10T13:07:19.885Z,4.70
2023-03-10T13:09:28.917Z,6.55
2023-03-10T13:11:39.020Z,7.47
2023-03-10T13:13:43.078Z,7.47
2023-03-10T13:15:58.942Z,8.15
2023-03-10T13:18:17.656Z,6.05
2023-03-10T13:20:21.726Z,13.27
2023-03-10T13:22:26.991Z,10.38
2023-03-10T13:24:32.467Z,9.95
2023-03-10T13:26:41.756Z,8.27
2023-03-10T13:28:53.772Z,8.70
2023-03-10T13:31:19.610Z,4.63
2023-03-10T13:33:26.136Z,4.60
2023-03-10T13:35:34.009Z,6.18
2023-03-10T13:37:39.220Z,5.00
2023-03-10T13:41:48.386Z,3.80
2023-03-10T13:43:54.057Z,6.22
2023-03-10T13:46:00.657Z,4.88
2023-03-10T13:48:07.191Z,3.45
2023-03-10T13:50:18.408Z,4.53
2023-03-10T13:52:25.398Z,3.03
2023-03-10T13:54:32.911Z,5.57
2023-03-10T13:56:39.699Z,6.40
2023-03-10T13:58:45.040Z,4.63
2023-03-10T14:00:50.863Z,4.97
2023-03-10T14:02:56.462Z,2.30
2023-03-10T14:05:01.127Z,4.53
2023-03-10T14:07:14.224Z,2.05
2023-03-10T14:09:22.494Z,5.63
2023-03-10T14:11:34.851Z,3.45
2023-03-10T14:13:44.477Z,3.05
2023-03-10T14:15:55.561Z,2.05
2023-03-10T14:18:19.630Z,1.77
2023-03-10T14:20:29.531Z,4.40
2023-03-10T14:22:40.715Z,8.07
2023-03-10T14:24:44.416Z,3.97
2023-03-10T14:26:50.019Z,2.22
2023-03-10T14:28:54.298Z,3.80
2023-03-10T14:30:59.766Z,3.15
2023-03-10T14:33:07.011Z,1.88
2023-03-10T14:35:13.035Z,4.28
2023-03-10T14:37:19.496Z,3.58
2023-03-10T14:39:23.440Z,7.35
2023-03-10T14:41:29.310Z,3.40
2023-03-10T14:43:35.983Z,3.50
2023-03-10T14:45:42.639Z,3.63
2023-03-10T14:47:48.547Z,4.00
2023-03-10T14:49:53.060Z,1.95
2023-03-10T14:51:59.002Z,4.13
2023-03-10T14:54:04.504Z,5.47
2023-03-10T14:56:13.851Z,6.63
2023-03-10T14:58:22.319Z,2.80
2023-03-10T15:00:30.550Z,11.05
2023-03-10T15:02:38.792Z,4.93
2023-03-10T15:04:42.932Z,4.28
2023-03-10T15:06:49.101Z,2.97
2023-03-10T15:08:54.715Z,3.20
2023-03-10T15:11:01.035Z,6.57
2023-03-10T15:13:08.512Z,4.90
2023-03-10T15:15:19.523Z,2.85
2023-03-10T15:17:26.161Z,2.15
2023-03-10T15:19:32.160Z,3.30
2023-03-10T15:21:36.105Z,1.52
2023-03-10T15:23:40.048Z,2.00
2023-03-10T15:25:46.391Z,3.05
2023-03-10T15:27:52.546Z,2.83
2023-03-10T15:29:59.294Z,6.25
2023-03-10T15:32:06.501Z,5.45
2023-03-10T15:34:20.553Z,5.68
2023-03-10T15:36:24.668Z,4.75
2023-03-10T15:38:28.670Z,5.95
2023-03-10T15:40:34.333Z,4.43
2023-03-10T15:42:38.721Z,3.92
2023-03-10T15:44:43.451Z,5.32
2023-03-10T15:46:51.050Z,6.13
2023-03-10T15:48:54.560Z,5.38
2023-03-10T15:51:00.732Z,5.32
2023-03-10T15:53:05.708Z,6.32
2023-03-10T15:55:15.051Z,4.15
2023-03-10T15:57:19.595Z,5.78
2023-03-10T15:59:24.035Z,4.45
2023-03-10T16:01:29.294Z,4.78
2023-03-10T16:03:37.360Z,2.88
2023-03-10T16:05:49.910Z,3.33
2023-03-10T16:07:56.087Z,3.00
2023-03-10T16:10:08.450Z,1.85
2023-03-10T16:12:14.418Z,3.13
2023-03-10T16:14:19.317Z,4.43
2023-03-10T16:16:30.236Z,4.57
2023-03-10T16:18:39.354Z,6.30
2023-03-10T16:20:43.344Z,8.57
2023-03-10T16:22:48.230Z,4.25
2023-03-10T16:24:55.696Z,2.90
2023-03-10T16:27:00.695Z,3.75
2023-03-10T16:29:04.658Z,3.17
2023-03-10T16:31:09.296Z,3.78
2023-03-10T16:33:14.229Z,5.32
2023-03-10T16:35:20.285Z,6.82
2023-03-10T16:39:33.207Z,3.10
2023-03-10T16:41:38.701Z,4.43
2023-03-10T16:43:42.999Z,5.40
2023-03-10T16:45:51.648Z,5.13
2023-03-10T16:47:57.900Z,3.22
2023-03-10T16:50:02.147Z,3.10
2023-03-10T16:52:11.562Z,6.20
2023-03-10T16:54:17.324Z,5.85
2023-03-10T16:56:23.285Z,5.28
2023-03-10T16:58:29.006Z,7.03
2023-03-10T17:00:34.377Z,6.28
2023-03-10T17:02:40.125Z,2.90
2023-03-10T17:04:45.679Z,1.38
2023-03-10T17:06:50.080Z,7.35
2023-03-10T17:08:57.819Z,4.13
2023-03-10T17:11:02.820Z,1.67
2023-03-10T17:13:07.061Z,2.53
2023-03-10T17:15:15.091Z,8.60
2023-03-10T17:17:19.107Z,3.78
2023-03-10T17:19:29.217Z,3.80
2023-03-10T17:21:38.737Z,3.95
2023-03-10T17:23:42.800Z,3.65
2023-03-10T17:25:49.317Z,4.05
2023-03-10T17:27:55.405Z,2.97
2023-03-10T17:30:00.320Z,5.25
2023-03-10T17:32:06.751Z,2.72
2023-03-10T17:34:16.220Z,7.90
2023-03-10T17:36:21.577Z,3.55
2023-03-10T17:38:28.952Z,5.78
2023-03-10T17:40:35.633Z,4.35
2023-03-10T17:42:41.024Z,15.98
2023-03-10T17:44:45.229Z,14.00
2023-03-10T17:46:50.727Z,13.23
2023-03-10T17:48:56.925Z,11.23
2023-03-10T17:51:03.155Z,3.72
2023-03-10T17:53:10.621Z,7.63
2023-03-10T17:55:14.565Z,17.35
2023-03-10T17:57:21.136Z,13.52
2023-03-10T17:59:25.677Z,14.90
2023-03-10T18:01:31.757Z,9.68
2023-03-10T18:03:36.247Z,9.32
2023-03-10T18:05:45.779Z,10.10
2023-03-10T18:07:54.233Z,19.50
2023-03-10T18:09:59.921Z,16.90
2023-03-10T18:12:04.774Z,12.90
2023-03-10T18:14:10.256Z,17.77
2023-03-10T18:16:20.185Z,12.07
2023-03-10T18:18:25.284Z,10.02
2023-03-10T18:20:31.390Z,9.85
2023-03-10T18:22:37.301Z,13.00
2023-03-10T18:24:41.455Z,17.02
2023-03-10T18:26:45.875Z,18.85
2023-03-10T18:28:49.853Z,21.10
2023-03-10T18:30:54.022Z,20.08
2023-03-10T18:32:57.854Z,24.88
2023-03-10T18:35:03.092Z,22.02
2023-03-10T18:37:14.040Z,22.60
2023-03-10T18:39:19.241Z,26.77
2023-03-10T18:41:24.988Z,20.13
2023-03-10T18:43:29.507Z,18.00
2023-03-10T18:45:33.210Z,23.00
2023-03-10T18:47:37.636Z,21.80
2023-03-10T18:49:42.740Z,26.55
2023-03-10T18:51:47.012Z,23.50
2023-03-10T18:53:51.094Z,27.40
2023-03-10T18:55:57.281Z,23.17
2023-03-10T18:58:02.369Z,27.13
2023-03-10T19:00:09.396Z,26.27
2023-03-10T19:02:15.587Z,22.30
2023-03-10T19:04:19.757Z,30.23
2023-03-10T19:06:23.315Z,28.63
2023-03-10T19:08:28.094Z,26.88
2023-03-10T19:10:34.699Z,35.80
2023-03-10T19:12:40.524Z,28.65
2023-03-10T19:14:45.344Z,24.65
2023-03-10T19:16:50.244Z,35.25
2023-03-10T19:18:55.188Z,32.78
2023-03-10T19:21:01.253Z,24.27
2023-03-10T19:23:05.534Z,21.70
2023-03-10T19:25:12.875Z,27.25
2023-03-10T19:27:18.327Z,25.05
2023-03-10T19:29:24.766Z,20.42
2023-03-10T19:31:29.375Z,29.98
2023-03-10T19:33:33.240Z,36.15
2023-03-10T19:35:37.668Z,31.90
2023-03-10T19:37:43.940Z,31.60
2023-03-10T19:39:49.935Z,27.83
2023-03-10T19:41:54.939Z,28.63
2023-03-10T19:44:00.861Z,26.20
2023-03-10T19:46:08.519Z,29.45
2023-03-10T19:48:13.106Z,25.67
2023-03-10T19:50:19.750Z,29.05
2023-03-10T19:52:24.138Z,27.88
2023-03-10T19:54:30.290Z,29.90
2023-03-10T19:56:33.940Z,32.03
2023-03-10T19:58:38.371Z,29.80
2023-03-10T20:00:42.445Z,30.67
2023-03-10T20:02:47.892Z,33.58
2023-03-10T20:04:52.770Z,34.63
2023-03-10T20:06:57.072Z,31.88
2023-03-10T20:09:00.853Z,31.90
2023-03-10T20:11:04.598Z,32.35
2023-03-10T20:13:08.840Z,34.58
2023-03-10T20:15:14.035Z,36.33
2023-03-10T20:17:19.394Z,38.65
2023-03-10T20:19:24.849Z,35.42
2023-03-10T20:21:28.970Z,35.63
2023-03-10T20:23:32.873Z,36.17
2023-03-10T20:25:36.479Z,47.92
2023-03-10T20:27:41.248Z,37.28
2023-03-10T20:29:44.892Z,37.35
2023-03-10T20:31:48.528Z,43.95
2023-03-10T20:33:52.612Z,36.80
2023-03-10T20:35:57.867Z,37.85
2023-03-10T20:38:02.290Z,32.88
2023-03-10T20:40:07.151Z,34.47
2023-03-10T20:42:10.964Z,35.38
2023-03-10T20:44:15.773Z,38.00
2023-03-10T20:46:22.880Z,40.78
2023-03-10T20:48:26.546Z,35.17
2023-03-10T20:50:30.998Z,38.58
2023-03-10T20:52:37.834Z,38.97
2023-03-10T20:54:41.762Z,39.97
2023-03-10T20:56:45.453Z,36.80
2023-03-10T20:58:49.575Z,38.28
2023-03-10T21:00:53.136Z,39.42
2023-03-10T21:02:58.227Z,38.20
2023-03-10T21:05:02.254Z,36.28
2023-03-10T21:07:06.411Z,39.35
2023-03-10T21:09:11.879Z,45.35
2023-03-10T21:11:16.070Z,44.78
2023-03-10T21:13:25.436Z,47.42
2023-03-10T21:15:29.787Z,36.10
2023-03-10T21:17:33.461Z,43.55
2023-03-10T21:19:37.022Z,42.25
2023-03-10T21:21:42.139Z,42.70
2023-03-10T21:23:46.661Z,44.50
2023-03-10T21:25:52.863Z,49.15
2023-03-10T21:27:59.231Z,43.03
2023-03-10T21:30:04.623Z,43.17
2023-03-10T21:32:08.631Z,40.63
2023-03-10T21:34:12.063Z,40.33
2023-03-10T21:36:17.796Z,42.00
2023-03-10T21:38:21.377Z,39.85
2023-03-10T21:40:25.507Z,45.47
2023-03-10T21:42:31.044Z,40.63
2023-03-10T21:44:35.936Z,36.20
2023-03-10T21:46:39.962Z,43.25
2023-03-10T21:48:44.550Z,46.35
2023-03-10T21:50:49.358Z,48.83
2023-03-10T21:52:54.446Z,40.38
2023-03-10T21:54:58.710Z,44.28
2023-03-10T21:57:02.364Z,44.58
2023-03-10T21:59:07.657Z,46.55
2023-03-10T22:03:16.665Z,46.47
2023-03-10T22:05:20.843Z,45.03
2023-03-10T22:07:25.137Z,40.80
2023-03-10T22:09:29.265Z,42.05
2023-03-10T22:11:32.887Z,44.53
2023-03-10T22:13:37.943Z,37.58
2023-03-10T22:15:43.376Z,37.58
2023-03-10T22:17:47.561Z,42.30
2023-03-10T22:19:52.273Z,43.33
2023-03-10T22:21:55.790Z,45.60
2023-03-10T22:24:00.368Z,41.47
2023-03-10T22:26:04.394Z,42.50
2023-03-10T22:28:08.360Z,50.15
2023-03-10T22:30:14.313Z,49.50
2023-03-10T22:32:19.936Z,45.15
2023-03-10T22:34:24.082Z,43.60
2023-03-10T22:36:27.903Z,44.20
2023-03-10T22:38:31.563Z,42.45
2023-03-10T22:40:35.293Z,46.65
2023-03-10T22:42:39.651Z,47.80
2023-03-10T22:44:43.206Z,49.15
2023-03-10T22:46:48.386Z,48.25
2023-03-10T22:48:53.249Z,44.42
2023-03-10T22:50:56.813Z,44.25
2023-03-10T22:53:01.092Z,44.47
2023-03-10T22:55:04.811Z,44.70
2023-03-10T22:57:08.552Z,45.30
2023-03-10T22:59:12.925Z,42.03
2023-03-10T23:01:16.537Z,41.47
2023-03-10T23:03:20.130Z,40.95
2023-03-10T23:05:25.311Z,42.47
2023-03-10T23:07:28.917Z,44.78
2023-03-10T23:09:32.485Z,48.80
2023-03-10T23:11:36.506Z,44.80
2023-03-10T23:13:40.176Z,42.50
2023-03-10T23:15:44.960Z,47.95
2023-03-10T23:17:48.885Z,44.05
2023-03-10T23:19:56.096Z,44.15
2023-03-10T23:22:01.115Z,44.63
2023-03-10T23:24:04.859Z,44.55
2023-03-10T23:26:08.674Z,40.88
2023-03-10T23:28:12.844Z,46.35
2023-03-10T23:30:17.415Z,44.97
2023-03-10T23:32:21.054Z,36.35
2023-03-10T23:34:24.706Z,46.45
2023-03-10T23:36:28.489Z,45.05
2023-03-10T23:38:36.016Z,47.40
2023-03-10T23:40:40.107Z,46.00
2023-03-10T23:42:44.163Z,47.60
2023-03-10T23:44:50.073Z,44.45
2023-03-10T23:46:54.153Z,43.22
2023-03-10T23:48:57.586Z,52.80
2023-03-10T23:51:03.151Z,42.33
2023-03-10T23:53:08.562Z,45.40
2023-03-10T23:55:16.693Z,51.03
2023-03-10T23:57:20.457Z,47.75
2023-03-10T23:59:24.869Z,50.92
